sensor_id;sensor_type;location;lat;lon;timestamp;P1;durP1;ratioP1;P2;durP2;ratioP2
54201;SDS011;40108;53.152;5.844;2024-02-28T00:02:10;58.58;;;28.05;;
54201;SDS011;40108;53.152;5.844;2024-02-28T00:04:35;67.65;;;31.27;;
54201;SDS011;40108;53.152;5.844;2024-02-28T00:07:01;56.53;;;27.55;;
54201;SDS011;40108;53.152;5.844;2024-02-28T00:09:27;64.20;;;31.50;;
54201;SDS011;40108;53.152;5.844;2024-02-28T00:11:52;61.28;;;29.30;;
54201;SDS011;40108;53.152;5.844;2024-02-28T00:14:18;62.00;;;29.95;;
54201;SDS011;40108;53.152;5.844;2024-02-28T00:16:44;53.33;;;27.25;;
54201;SDS011;40108;53.152;5.844;2024-02-28T00:19:11;53.10;;;26.15;;
54201;SDS011;40108;53.152;5.844;2024-02-28T00:21:37;55.42;;;24.42;;
54201;SDS011;40108;53.152;5.844;2024-02-28T00:24:04;50.80;;;25.25;;
54201;SDS011;40108;53.152;5.844;2024-02-28T00:26:31;60.35;;;30.05;;
54201;SDS011;40108;53.152;5.844;2024-02-28T00:28:56;59.00;;;28.38;;
54201;SDS011;40108;53.152;5.844;2024-02-28T00:31:22;57.35;;;27.50;;
54201;SDS011;40108;53.152;5.844;2024-02-28T00:33:48;59.67;;;27.58;;
54201;SDS011;40108;53.152;5.844;2024-02-28T00:36:14;54.22;;;27.13;;
54201;SDS011;40108;53.152;5.844;2024-02-28T00:38:43;58.92;;;29.48;;
54201;SDS011;40108;53.152;5.844;2024-02-28T00:41:09;61.60;;;29.38;;
54201;SDS011;40108;53.152;5.844;2024-02-28T00:43:34;55.17;;;26.13;;
54201;SDS011;40108;53.152;5.844;2024-02-28T00:46:00;56.75;;;28.38;;
54201;SDS011;40108;53.152;5.844;2024-02-28T00:48:26;57.92;;;22.20;;
54201;SDS011;40108;53.152;5.844;2024-02-28T00:50:52;88.05;;;28.27;;
54201;SDS011;40108;53.152;5.844;2024-02-28T00:53:18;112.60;;;28.83;;
54201;SDS011;40108;53.152;5.844;2024-02-28T00:55:44;134.57;;;30.50;;
54201;SDS011;40108;53.152;5.844;2024-02-28T00:58:10;97.47;;;22.45;;
54201;SDS011;40108;53.152;5.844;2024-02-28T01:00:36;148.80;;;27.63;;
54201;SDS011;40108;53.152;5.844;2024-02-28T01:03:02;135.02;;;26.40;;
54201;SDS011;40108;53.152;5.844;2024-02-28T01:05:33;136.52;;;25.23;;
54201;SDS011;40108;53.152;5.844;2024-02-28T01:08:00;120.10;;;24.55;;
54201;SDS011;40108;53.152;5.844;2024-02-28T01:10:25;167.35;;;29.77;;
54201;SDS011;40108;53.152;5.844;2024-02-28T01:12:51;146.75;;;27.17;;
54201;SDS011;40108;53.152;5.844;2024-02-28T01:15:17;150.77;;;28.88;;
54201;SDS011;40108;53.152;5.844;2024-02-28T01:17:42;119.40;;;26.60;;
54201;SDS011;40108;53.152;5.844;2024-02-28T01:20:08;134.23;;;32.08;;
54201;SDS011;40108;53.152;5.844;2024-02-28T01:22:34;82.70;;;27.98;;
54201;SDS011;40108;53.152;5.844;2024-02-28T01:25:02;76.78;;;30.25;;
54201;SDS011;40108;53.152;5.844;2024-02-28T01:27:28;65.15;;;26.77;;
54201;SDS011;40108;53.152;5.844;2024-02-28T01:29:54;72.82;;;30.00;;
54201;SDS011;40108;53.152;5.844;2024-02-28T01:32:20;65.72;;;27.58;;
54201;SDS011;40108;53.152;5.844;2024-02-28T01:34:46;58.17;;;25.15;;
54201;SDS011;40108;53.152;5.844;2024-02-28T01:37:11;61.30;;;27.23;;
54201;SDS011;40108;53.152;5.844;2024-02-28T01:39:37;74.07;;;28.75;;
54201;SDS011;40108;53.152;5.844;2024-02-28T01:42:03;67.88;;;27.67;;
54201;SDS011;40108;53.152;5.844;2024-02-28T01:44:29;76.15;;;30.42;;
54201;SDS011;40108;53.152;5.844;2024-02-28T01:46:55;54.47;;;24.80;;
54201;SDS011;40108;53.152;5.844;2024-02-28T01:49:23;63.25;;;27.52;;
54201;SDS011;40108;53.152;5.844;2024-02-28T01:51:50;77.47;;;32.67;;
54201;SDS011;40108;53.152;5.844;2024-02-28T01:54:18;77.53;;;31.88;;
54201;SDS011;40108;53.152;5.844;2024-02-28T01:56:45;65.07;;;29.23;;
54201;SDS011;40108;53.152;5.844;2024-02-28T01:59:11;87.47;;;34.78;;
54201;SDS011;40108;53.152;5.844;2024-02-28T02:01:38;69.18;;;31.02;;
54201;SDS011;40108;53.152;5.844;2024-02-28T02:04:04;67.28;;;29.02;;
54201;SDS011;40108;53.152;5.844;2024-02-28T02:06:30;71.85;;;31.25;;
54201;SDS011;40108;53.152;5.844;2024-02-28T02:08:57;74.28;;;32.33;;
54201;SDS011;40108;53.152;5.844;2024-02-28T02:11:22;67.10;;;30.35;;
54201;SDS011;40108;53.152;5.844;2024-02-28T02:13:50;75.25;;;34.70;;
54201;SDS011;40108;53.152;5.844;2024-02-28T02:16:17;74.40;;;33.60;;
54201;SDS011;40108;53.152;5.844;2024-02-28T02:18:44;78.53;;;34.70;;
54201;SDS011;40108;53.152;5.844;2024-02-28T02:21:10;76.80;;;33.67;;
54201;SDS011;40108;53.152;5.844;2024-02-28T02:23:37;70.70;;;33.22;;
54201;SDS011;40108;53.152;5.844;2024-02-28T02:26:06;70.85;;;30.60;;
54201;SDS011;40108;53.152;5.844;2024-02-28T02:28:33;71.60;;;32.45;;
54201;SDS011;40108;53.152;5.844;2024-02-28T02:30:58;76.18;;;32.53;;
54201;SDS011;40108;53.152;5.844;2024-02-28T02:33:24;74.18;;;31.77;;
54201;SDS011;40108;53.152;5.844;2024-02-28T02:35:51;75.20;;;33.75;;
54201;SDS011;40108;53.152;5.844;2024-02-28T02:38:17;84.80;;;35.50;;
54201;SDS011;40108;53.152;5.844;2024-02-28T02:40:42;89.28;;;36.75;;
54201;SDS011;40108;53.152;5.844;2024-02-28T02:43:08;82.78;;;35.70;;
54201;SDS011;40108;53.152;5.844;2024-02-28T02:45:34;86.90;;;37.28;;
54201;SDS011;40108;53.152;5.844;2024-02-28T02:48:00;84.85;;;37.50;;
54201;SDS011;40108;53.152;5.844;2024-02-28T02:50:26;88.78;;;37.67;;
54201;SDS011;40108;53.152;5.844;2024-02-28T02:52:51;85.68;;;37.90;;
54201;SDS011;40108;53.152;5.844;2024-02-28T02:55:17;84.63;;;36.65;;
54201;SDS011;40108;53.152;5.844;2024-02-28T02:57:43;88.38;;;37.00;;
54201;SDS011;40108;53.152;5.844;2024-02-28T03:00:09;84.60;;;37.17;;
54201;SDS011;40108;53.152;5.844;2024-02-28T03:02:35;66.40;;;29.92;;
54201;SDS011;40108;53.152;5.844;2024-02-28T03:05:03;76.95;;;34.42;;
54201;SDS011;40108;53.152;5.844;2024-02-28T03:07:29;78.45;;;34.45;;
54201;SDS011;40108;53.152;5.844;2024-02-28T03:09:55;86.03;;;36.47;;
54201;SDS011;40108;53.152;5.844;2024-02-28T03:12:21;91.82;;;38.35;;
54201;SDS011;40108;53.152;5.844;2024-02-28T03:14:47;89.50;;;36.72;;
54201;SDS011;40108;53.152;5.844;2024-02-28T03:17:13;87.85;;;37.58;;
54201;SDS011;40108;53.152;5.844;2024-02-28T03:19:40;79.45;;;36.45;;
54201;SDS011;40108;53.152;5.844;2024-02-28T03:22:06;80.53;;;35.22;;
54201;SDS011;40108;53.152;5.844;2024-02-28T03:24:32;89.70;;;38.05;;
54201;SDS011;40108;53.152;5.844;2024-02-28T03:27:04;84.75;;;36.72;;
54201;SDS011;40108;53.152;5.844;2024-02-28T03:29:29;88.18;;;38.08;;
54201;SDS011;40108;53.152;5.844;2024-02-28T03:31:55;78.70;;;35.63;;
54201;SDS011;40108;53.152;5.844;2024-02-28T03:34:22;83.38;;;34.33;;
54201;SDS011;40108;53.152;5.844;2024-02-28T03:36:47;83.85;;;36.63;;
54201;SDS011;40108;53.152;5.844;2024-02-28T03:39:13;78.00;;;31.85;;
54201;SDS011;40108;53.152;5.844;2024-02-28T03:41:39;85.45;;;36.08;;
54201;SDS011;40108;53.152;5.844;2024-02-28T03:44:05;79.03;;;34.78;;
54201;SDS011;40108;53.152;5.844;2024-02-28T03:46:30;68.82;;;30.98;;
54201;SDS011;40108;53.152;5.844;2024-02-28T03:48:56;75.70;;;35.10;;
54201;SDS011;40108;53.152;5.844;2024-02-28T03:51:22;80.30;;;34.92;;
54201;SDS011;40108;53.152;5.844;2024-02-28T03:53:48;87.22;;;36.15;;
54201;SDS011;40108;53.152;5.844;2024-02-28T03:56:21;85.80;;;36.63;;
54201;SDS011;40108;53.152;5.844;2024-02-28T03:58:47;82.82;;;36.38;;
54201;SDS011;40108;53.152;5.844;2024-02-28T04:01:13;54.13;;;24.55;;
54201;SDS011;40108;53.152;5.844;2024-02-28T04:03:39;77.85;;;35.28;;
54201;SDS011;40108;53.152;5.844;2024-02-28T04:06:04;84.80;;;35.95;;
54201;SDS011;40108;53.152;5.844;2024-02-28T04:08:30;82.68;;;35.38;;
54201;SDS011;40108;53.152;5.844;2024-02-28T04:10:56;70.45;;;31.63;;
54201;SDS011;40108;53.152;5.844;2024-02-28T04:13:21;91.10;;;36.92;;
54201;SDS011;40108;53.152;5.844;2024-02-28T04:15:47;84.93;;;35.95;;
54201;SDS011;40108;53.152;5.844;2024-02-28T04:18:13;87.03;;;34.70;;
54201;SDS011;40108;53.152;5.844;2024-02-28T04:20:38;86.15;;;35.53;;
54201;SDS011;40108;53.152;5.844;2024-02-28T04:23:04;85.03;;;36.58;;
54201;SDS011;40108;53.152;5.844;2024-02-28T04:25:30;78.50;;;33.90;;
54201;SDS011;40108;53.152;5.844;2024-02-28T04:27:55;69.10;;;30.40;;
54201;SDS011;40108;53.152;5.844;2024-02-28T04:30:22;82.85;;;35.25;;
54201;SDS011;40108;53.152;5.844;2024-02-28T04:32:48;79.85;;;35.25;;
54201;SDS011;40108;53.152;5.844;2024-02-28T04:35:13;80.03;;;35.63;;
54201;SDS011;40108;53.152;5.844;2024-02-28T04:37:43;84.35;;;36.00;;
54201;SDS011;40108;53.152;5.844;2024-02-28T04:40:12;81.43;;;37.97;;
54201;SDS011;40108;53.152;5.844;2024-02-28T04:42:38;76.78;;;36.83;;
54201;SDS011;40108;53.152;5.844;2024-02-28T04:45:04;77.45;;;34.85;;
54201;SDS011;40108;53.152;5.844;2024-02-28T04:47:30;78.53;;;36.20;;
54201;SDS011;40108;53.152;5.844;2024-02-28T04:49:56;79.10;;;36.05;;
54201;SDS011;40108;53.152;5.844;2024-02-28T04:52:22;82.68;;;37.33;;
54201;SDS011;40108;53.152;5.844;2024-02-28T04:54:50;81.38;;;36.90;;
54201;SDS011;40108;53.152;5.844;2024-02-28T04:57:16;84.30;;;38.03;;
54201;SDS011;40108;53.152;5.844;2024-02-28T04:59:42;89.15;;;39.25;;
54201;SDS011;40108;53.152;5.844;2024-02-28T05:02:09;82.22;;;37.50;;
54201;SDS011;40108;53.152;5.844;2024-02-28T05:04:34;90.07;;;38.97;;
54201;SDS011;40108;53.152;5.844;2024-02-28T05:07:00;72.65;;;33.47;;
54201;SDS011;40108;53.152;5.844;2024-02-28T05:09:26;91.80;;;41.65;;
54201;SDS011;40108;53.152;5.844;2024-02-28T05:11:52;89.25;;;39.35;;
54201;SDS011;40108;53.152;5.844;2024-02-28T05:14:17;100.85;;;41.38;;
54201;SDS011;40108;53.152;5.844;2024-02-28T05:16:43;99.57;;;40.08;;
54201;SDS011;40108;53.152;5.844;2024-02-28T05:19:09;97.22;;;40.13;;
54201;SDS011;40108;53.152;5.844;2024-02-28T05:21:41;104.38;;;40.25;;
54201;SDS011;40108;53.152;5.844;2024-02-28T05:24:08;97.18;;;38.42;;
54201;SDS011;40108;53.152;5.844;2024-02-28T05:26:37;91.68;;;38.25;;
54201;SDS011;40108;53.152;5.844;2024-02-28T05:29:03;101.70;;;40.92;;
54201;SDS011;40108;53.152;5.844;2024-02-28T05:31:30;97.43;;;39.13;;
54201;SDS011;40108;53.152;5.844;2024-02-28T05:33:57;79.53;;;34.25;;
54201;SDS011;40108;53.152;5.844;2024-02-28T05:36:23;96.28;;;39.75;;
54201;SDS011;40108;53.152;5.844;2024-02-28T05:38:51;101.57;;;40.88;;
54201;SDS011;40108;53.152;5.844;2024-02-28T05:41:17;90.53;;;37.35;;
54201;SDS011;40108;53.152;5.844;2024-02-28T05:43:43;100.85;;;41.45;;
54201;SDS011;40108;53.152;5.844;2024-02-28T05:46:09;89.68;;;38.38;;
54201;SDS011;40108;53.152;5.844;2024-02-28T05:48:35;85.18;;;36.08;;
54201;SDS011;40108;53.152;5.844;2024-02-28T05:51:01;101.47;;;43.05;;
54201;SDS011;40108;53.152;5.844;2024-02-28T05:53:28;80.93;;;38.13;;
54201;SDS011;40108;53.152;5.844;2024-02-28T05:55:57;78.47;;;34.50;;
54201;SDS011;40108;53.152;5.844;2024-02-28T05:58:23;90.68;;;39.60;;
54201;SDS011;40108;53.152;5.844;2024-02-28T06:00:50;101.25;;;41.88;;
54201;SDS011;40108;53.152;5.844;2024-02-28T06:03:16;103.00;;;42.35;;
54201;SDS011;40108;53.152;5.844;2024-02-28T06:05:42;94.72;;;41.58;;
54201;SDS011;40108;53.152;5.844;2024-02-28T06:08:08;105.60;;;42.38;;
54201;SDS011;40108;53.152;5.844;2024-02-28T06:10:33;95.30;;;40.80;;
54201;SDS011;40108;53.152;5.844;2024-02-28T06:12:59;98.85;;;40.08;;
54201;SDS011;40108;53.152;5.844;2024-02-28T06:15:25;101.05;;;41.40;;
54201;SDS011;40108;53.152;5.844;2024-02-28T06:17:51;110.03;;;43.28;;
54201;SDS011;40108;53.152;5.844;2024-02-28T06:20:17;100.93;;;42.72;;
54201;SDS011;40108;53.152;5.844;2024-02-28T06:22:42;104.63;;;43.70;;
54201;SDS011;40108;53.152;5.844;2024-02-28T06:25:08;90.57;;;38.80;;
54201;SDS011;40108;53.152;5.844;2024-02-28T06:27:43;87.57;;;40.85;;
54201;SDS011;40108;53.152;5.844;2024-02-28T06:30:09;74.47;;;33.55;;
54201;SDS011;40108;53.152;5.844;2024-02-28T06:32:34;86.53;;;38.30;;
54201;SDS011;40108;53.152;5.844;2024-02-28T06:35:00;87.40;;;38.67;;
54201;SDS011;40108;53.152;5.844;2024-02-28T06:37:26;85.88;;;37.10;;
54201;SDS011;40108;53.152;5.844;2024-02-28T06:39:53;86.60;;;38.05;;
54201;SDS011;40108;53.152;5.844;2024-02-28T06:42:18;91.13;;;40.83;;
54201;SDS011;40108;53.152;5.844;2024-02-28T06:44:44;88.50;;;39.40;;
54201;SDS011;40108;53.152;5.844;2024-02-28T06:47:09;83.78;;;38.33;;
54201;SDS011;40108;53.152;5.844;2024-02-28T06:49:35;86.65;;;40.00;;
54201;SDS011;40108;53.152;5.844;2024-02-28T06:52:01;85.28;;;37.13;;
54201;SDS011;40108;53.152;5.844;2024-02-28T06:54:27;71.70;;;34.08;;
54201;SDS011;40108;53.152;5.844;2024-02-28T06:56:53;80.78;;;37.70;;
54201;SDS011;40108;53.152;5.844;2024-02-28T06:59:20;74.10;;;36.08;;
54201;SDS011;40108;53.152;5.844;2024-02-28T07:01:46;74.70;;;34.75;;
54201;SDS011;40108;53.152;5.844;2024-02-28T07:04:11;59.90;;;28.52;;
54201;SDS011;40108;53.152;5.844;2024-02-28T07:06:37;67.32;;;32.25;;
54201;SDS011;40108;53.152;5.844;2024-02-28T07:09:03;69.30;;;33.08;;
54201;SDS011;40108;53.152;5.844;2024-02-28T07:11:28;70.50;;;34.15;;
54201;SDS011;40108;53.152;5.844;2024-02-28T07:13:54;61.60;;;30.52;;
54201;SDS011;40108;53.152;5.844;2024-02-28T07:16:22;59.83;;;32.17;;
54201;SDS011;40108;53.152;5.844;2024-02-28T07:18:48;65.72;;;33.13;;
54201;SDS011;40108;53.152;5.844;2024-02-28T07:21:14;61.22;;;31.65;;
54201;SDS011;40108;53.152;5.844;2024-02-28T07:23:39;59.95;;;31.15;;
54201;SDS011;40108;53.152;5.844;2024-02-28T07:26:06;66.82;;;33.85;;
54201;SDS011;40108;53.152;5.844;2024-02-28T07:28:32;63.17;;;32.30;;
54201;SDS011;40108;53.152;5.844;2024-02-28T07:30:58;57.55;;;30.08;;
54201;SDS011;40108;53.152;5.844;2024-02-28T07:33:23;72.90;;;38.28;;
54201;SDS011;40108;53.152;5.844;2024-02-28T07:35:51;57.05;;;30.23;;
54201;SDS011;40108;53.152;5.844;2024-02-28T07:38:17;72.10;;;34.35;;
54201;SDS011;40108;53.152;5.844;2024-02-28T07:40:45;74.45;;;36.55;;
54201;SDS011;40108;53.152;5.844;2024-02-28T07:43:13;54.40;;;30.38;;
54201;SDS011;40108;53.152;5.844;2024-02-28T07:45:39;68.13;;;35.20;;
54201;SDS011;40108;53.152;5.844;2024-02-28T07:48:04;61.33;;;32.85;;
54201;SDS011;40108;53.152;5.844;2024-02-28T07:50:31;73.82;;;37.17;;
54201;SDS011;40108;53.152;5.844;2024-02-28T07:52:56;71.60;;;36.85;;
54201;SDS011;40108;53.152;5.844;2024-02-28T07:55:22;51.10;;;26.55;;
54201;SDS011;40108;53.152;5.844;2024-02-28T07:57:54;61.85;;;33.15;;
54201;SDS011;40108;53.152;5.844;2024-02-28T08:00:19;61.00;;;32.35;;
54201;SDS011;40108;53.152;5.844;2024-02-28T08:02:45;65.60;;;36.03;;
54201;SDS011;40108;53.152;5.844;2024-02-28T08:05:11;71.78;;;38.03;;
54201;SDS011;40108;53.152;5.844;2024-02-28T08:07:38;59.53;;;31.60;;
54201;SDS011;40108;53.152;5.844;2024-02-28T08:10:04;60.40;;;33.58;;
54201;SDS011;40108;53.152;5.844;2024-02-28T08:12:32;66.68;;;36.80;;
54201;SDS011;40108;53.152;5.844;2024-02-28T08:14:58;65.40;;;35.50;;
54201;SDS011;40108;53.152;5.844;2024-02-28T08:17:23;62.08;;;33.70;;
54201;SDS011;40108;53.152;5.844;2024-02-28T08:19:49;76.72;;;39.80;;
54201;SDS011;40108;53.152;5.844;2024-02-28T08:22:15;77.53;;;38.75;;
54201;SDS011;40108;53.152;5.844;2024-02-28T08:24:41;63.67;;;36.38;;
54201;SDS011;40108;53.152;5.844;2024-02-28T08:27:06;84.40;;;41.00;;
54201;SDS011;40108;53.152;5.844;2024-02-28T08:29:32;80.05;;;40.33;;
54201;SDS011;40108;53.152;5.844;2024-02-28T08:32:00;83.20;;;41.15;;
54201;SDS011;40108;53.152;5.844;2024-02-28T08:34:27;86.28;;;41.38;;
54201;SDS011;40108;53.152;5.844;2024-02-28T08:36:53;83.63;;;38.22;;
54201;SDS011;40108;53.152;5.844;2024-02-28T08:39:18;77.25;;;40.80;;
54201;SDS011;40108;53.152;5.844;2024-02-28T08:41:44;80.68;;;39.35;;
54201;SDS011;40108;53.152;5.844;2024-02-28T08:44:10;82.03;;;42.33;;
54201;SDS011;40108;53.152;5.844;2024-02-28T08:46:36;86.05;;;40.70;;
54201;SDS011;40108;53.152;5.844;2024-02-28T08:49:01;82.20;;;40.53;;
54201;SDS011;40108;53.152;5.844;2024-02-28T08:51:28;66.95;;;37.25;;
54201;SDS011;40108;53.152;5.844;2024-02-28T08:53:53;78.68;;;40.35;;
54201;SDS011;40108;53.152;5.844;2024-02-28T08:56:20;76.70;;;39.53;;
54201;SDS011;40108;53.152;5.844;2024-02-28T08:58:46;82.55;;;42.20;;
54201;SDS011;40108;53.152;5.844;2024-02-28T09:01:15;81.30;;;42.33;;
54201;SDS011;40108;53.152;5.844;2024-02-28T09:03:41;91.95;;;43.17;;
54201;SDS011;40108;53.152;5.844;2024-02-28T09:06:07;89.05;;;44.35;;
54201;SDS011;40108;53.152;5.844;2024-02-28T09:08:32;78.07;;;42.28;;
54201;SDS011;40108;53.152;5.844;2024-02-28T09:10:58;80.88;;;41.95;;
54201;SDS011;40108;53.152;5.844;2024-02-28T09:13:24;72.10;;;39.10;;
54201;SDS011;40108;53.152;5.844;2024-02-28T09:15:50;83.38;;;42.65;;
54201;SDS011;40108;53.152;5.844;2024-02-28T09:18:16;86.45;;;42.70;;
54201;SDS011;40108;53.152;5.844;2024-02-28T09:20:42;84.70;;;44.05;;
54201;SDS011;40108;53.152;5.844;2024-02-28T09:23:07;91.72;;;41.90;;
54201;SDS011;40108;53.152;5.844;2024-02-28T09:25:33;74.00;;;39.97;;
54201;SDS011;40108;53.152;5.844;2024-02-28T09:28:00;76.15;;;41.00;;
54201;SDS011;40108;53.152;5.844;2024-02-28T09:30:27;82.72;;;43.80;;
54201;SDS011;40108;53.152;5.844;2024-02-28T09:32:53;84.13;;;41.65;;
54201;SDS011;40108;53.152;5.844;2024-02-28T09:35:19;77.88;;;41.92;;
54201;SDS011;40108;53.152;5.844;2024-02-28T09:37:45;79.05;;;44.00;;
54201;SDS011;40108;53.152;5.844;2024-02-28T09:40:11;87.15;;;44.28;;
54201;SDS011;40108;53.152;5.844;2024-02-28T09:42:37;76.60;;;43.15;;
54201;SDS011;40108;53.152;5.844;2024-02-28T09:45:03;77.57;;;41.97;;
54201;SDS011;40108;53.152;5.844;2024-02-28T09:47:33;78.22;;;41.92;;
54201;SDS011;40108;53.152;5.844;2024-02-28T09:49:59;80.55;;;43.58;;
54201;SDS011;40108;53.152;5.844;2024-02-28T09:52:26;82.40;;;43.47;;
54201;SDS011;40108;53.152;5.844;2024-02-28T09:54:55;73.75;;;42.10;;
54201;SDS011;40108;53.152;5.844;2024-02-28T09:57:21;71.57;;;39.35;;
54201;SDS011;40108;53.152;5.844;2024-02-28T09:59:52;86.88;;;42.75;;
54201;SDS011;40108;53.152;5.844;2024-02-28T10:02:19;78.88;;;39.25;;
54201;SDS011;40108;53.152;5.844;2024-02-28T10:04:46;81.88;;;42.30;;
54201;SDS011;40108;53.152;5.844;2024-02-28T10:07:12;76.20;;;39.10;;
54201;SDS011;40108;53.152;5.844;2024-02-28T10:09:38;75.65;;;37.88;;
54201;SDS011;40108;53.152;5.844;2024-02-28T10:12:05;80.40;;;40.72;;
54201;SDS011;40108;53.152;5.844;2024-02-28T10:14:31;76.75;;;38.10;;
54201;SDS011;40108;53.152;5.844;2024-02-28T10:16:56;75.57;;;36.45;;
54201;SDS011;40108;53.152;5.844;2024-02-28T10:19:22;70.07;;;37.00;;
54201;SDS011;40108;53.152;5.844;2024-02-28T10:21:47;79.55;;;38.40;;
54201;SDS011;40108;53.152;5.844;2024-02-28T10:24:13;74.15;;;39.72;;
54201;SDS011;40108;53.152;5.844;2024-02-28T10:26:45;68.00;;;38.80;;
54201;SDS011;40108;53.152;5.844;2024-02-28T10:29:22;66.47;;;37.60;;
54201;SDS011;40108;53.152;5.844;2024-02-28T10:31:48;72.93;;;38.08;;
54201;SDS011;40108;53.152;5.844;2024-02-28T10:34:16;67.55;;;37.67;;
54201;SDS011;40108;53.152;5.844;2024-02-28T10:36:42;68.20;;;37.22;;
54201;SDS011;40108;53.152;5.844;2024-02-28T10:39:09;51.50;;;31.80;;
54201;SDS011;40108;53.152;5.844;2024-02-28T10:41:39;56.20;;;34.53;;
54201;SDS011;40108;53.152;5.844;2024-02-28T10:44:06;58.10;;;34.13;;
54201;SDS011;40108;53.152;5.844;2024-02-28T10:46:32;53.55;;;32.47;;
54201;SDS011;40108;53.152;5.844;2024-02-28T10:48:58;51.50;;;29.42;;
54201;SDS011;40108;53.152;5.844;2024-02-28T10:51:24;61.67;;;36.30;;
54201;SDS011;40108;53.152;5.844;2024-02-28T10:53:58;62.78;;;33.67;;
54201;SDS011;40108;53.152;5.844;2024-02-28T10:56:26;56.80;;;34.33;;
54201;SDS011;40108;53.152;5.844;2024-02-28T10:58:57;60.97;;;35.50;;
54201;SDS011;40108;53.152;5.844;2024-02-28T11:01:25;60.38;;;35.72;;
54201;SDS011;40108;53.152;5.844;2024-02-28T11:03:51;55.42;;;35.78;;
54201;SDS011;40108;53.152;5.844;2024-02-28T11:06:18;64.88;;;35.85;;
54201;SDS011;40108;53.152;5.844;2024-02-28T11:08:46;49.75;;;32.83;;
54201;SDS011;40108;53.152;5.844;2024-02-28T11:11:19;55.45;;;34.17;;
54201;SDS011;40108;53.152;5.844;2024-02-28T11:13:55;55.70;;;33.88;;
54201;SDS011;40108;53.152;5.844;2024-02-28T11:16:31;52.03;;;33.22;;
54201;SDS011;40108;53.152;5.844;2024-02-28T11:18:58;56.22;;;34.45;;
54201;SDS011;40108;53.152;5.844;2024-02-28T11:21:25;55.67;;;35.80;;
54201;SDS011;40108;53.152;5.844;2024-02-28T11:23:51;51.60;;;32.92;;
54201;SDS011;40108;53.152;5.844;2024-02-28T11:26:21;54.25;;;34.67;;
54201;SDS011;40108;53.152;5.844;2024-02-28T11:28:47;53.22;;;34.35;;
54201;SDS011;40108;53.152;5.844;2024-02-28T11:31:14;48.45;;;30.15;;
54201;SDS011;40108;53.152;5.844;2024-02-28T11:33:40;53.53;;;33.05;;
54201;SDS011;40108;53.152;5.844;2024-02-28T11:36:06;58.70;;;35.55;;
54201;SDS011;40108;53.152;5.844;2024-02-28T11:38:34;55.10;;;32.53;;
54201;SDS011;40108;53.152;5.844;2024-02-28T11:41:03;54.33;;;33.28;;
54201;SDS011;40108;53.152;5.844;2024-02-28T11:43:32;60.00;;;36.30;;
54201;SDS011;40108;53.152;5.844;2024-02-28T11:45:59;56.13;;;35.53;;
54201;SDS011;40108;53.152;5.844;2024-02-28T11:48:26;51.63;;;32.47;;
54201;SDS011;40108;53.152;5.844;2024-02-28T11:50:54;56.63;;;33.53;;
54201;SDS011;40108;53.152;5.844;2024-02-28T11:53:24;49.28;;;33.80;;
54201;SDS011;40108;53.152;5.844;2024-02-28T11:55:52;51.70;;;34.03;;
54201;SDS011;40108;53.152;5.844;2024-02-28T11:58:18;52.83;;;32.55;;
54201;SDS011;40108;53.152;5.844;2024-02-28T12:00:49;53.45;;;35.08;;
54201;SDS011;40108;53.152;5.844;2024-02-28T12:03:22;52.65;;;34.78;;
54201;SDS011;40108;53.152;5.844;2024-02-28T12:05:48;53.83;;;33.13;;
54201;SDS011;40108;53.152;5.844;2024-02-28T12:08:16;51.72;;;32.20;;
54201;SDS011;40108;53.152;5.844;2024-02-28T12:10:43;51.05;;;32.85;;
54201;SDS011;40108;53.152;5.844;2024-02-28T12:13:09;46.17;;;28.73;;
54201;SDS011;40108;53.152;5.844;2024-02-28T12:15:36;44.35;;;30.58;;
54201;SDS011;40108;53.152;5.844;2024-02-28T12:18:07;45.28;;;31.88;;
54201;SDS011;40108;53.152;5.844;2024-02-28T12:20:35;42.42;;;29.73;;
54201;SDS011;40108;53.152;5.844;2024-02-28T12:23:02;51.00;;;31.15;;
54201;SDS011;40108;53.152;5.844;2024-02-28T12:25:29;42.75;;;28.70;;
54201;SDS011;40108;53.152;5.844;2024-02-28T12:27:54;51.70;;;31.15;;
54201;SDS011;40108;53.152;5.844;2024-02-28T12:30:20;48.03;;;29.10;;
54201;SDS011;40108;53.152;5.844;2024-02-28T12:32:46;47.17;;;30.75;;
54201;SDS011;40108;53.152;5.844;2024-02-28T12:35:11;45.33;;;30.20;;
54201;SDS011;40108;53.152;5.844;2024-02-28T12:37:37;44.42;;;29.30;;
54201;SDS011;40108;53.152;5.844;2024-02-28T12:40:04;50.67;;;32.38;;
54201;SDS011;40108;53.152;5.844;2024-02-28T12:42:31;46.75;;;32.28;;
54201;SDS011;40108;53.152;5.844;2024-02-28T12:44:57;45.47;;;31.75;;
54201;SDS011;40108;53.152;5.844;2024-02-28T12:47:22;44.47;;;31.63;;
54201;SDS011;40108;53.152;5.844;2024-02-28T12:49:48;44.92;;;31.38;;
54201;SDS011;40108;53.152;5.844;2024-02-28T12:52:14;45.35;;;31.15;;
54201;SDS011;40108;53.152;5.844;2024-02-28T12:54:40;46.53;;;31.40;;
54201;SDS011;40108;53.152;5.844;2024-02-28T12:57:05;43.83;;;30.15;;
54201;SDS011;40108;53.152;5.844;2024-02-28T12:59:32;40.05;;;28.45;;
54201;SDS011;40108;53.152;5.844;2024-02-28T13:01:58;41.83;;;29.52;;
54201;SDS011;40108;53.152;5.844;2024-02-28T13:04:24;32.92;;;26.27;;
54201;SDS011;40108;53.152;5.844;2024-02-28T13:06:51;35.65;;;23.48;;
54201;SDS011;40108;53.152;5.844;2024-02-28T13:09:18;33.53;;;23.60;;
54201;SDS011;40108;53.152;5.844;2024-02-28T13:11:44;40.25;;;27.90;;
54201;SDS011;40108;53.152;5.844;2024-02-28T13:14:10;34.95;;;26.33;;
54201;SDS011;40108;53.152;5.844;2024-02-28T13:16:36;38.85;;;27.10;;
54201;SDS011;40108;53.152;5.844;2024-02-28T13:19:02;38.80;;;25.77;;
54201;SDS011;40108;53.152;5.844;2024-02-28T13:21:29;39.67;;;26.05;;
54201;SDS011;40108;53.152;5.844;2024-02-28T13:23:57;34.72;;;25.95;;
54201;SDS011;40108;53.152;5.844;2024-02-28T13:26:23;31.20;;;23.40;;
54201;SDS011;40108;53.152;5.844;2024-02-28T13:28:49;35.58;;;25.42;;
54201;SDS011;40108;53.152;5.844;2024-02-28T13:31:15;36.83;;;27.23;;
54201;SDS011;40108;53.152;5.844;2024-02-28T13:33:41;33.20;;;24.92;;
54201;SDS011;40108;53.152;5.844;2024-02-28T13:36:07;34.85;;;26.13;;
54201;SDS011;40108;53.152;5.844;2024-02-28T13:38:33;30.23;;;22.30;;
54201;SDS011;40108;53.152;5.844;2024-02-28T13:40:59;35.47;;;24.80;;
54201;SDS011;40108;53.152;5.844;2024-02-28T13:43:25;36.58;;;25.80;;
54201;SDS011;40108;53.152;5.844;2024-02-28T13:45:50;30.90;;;23.27;;
54201;SDS011;40108;53.152;5.844;2024-02-28T13:48:20;31.42;;;24.95;;
54201;SDS011;40108;53.152;5.844;2024-02-28T13:50:49;35.20;;;23.25;;
54201;SDS011;40108;53.152;5.844;2024-02-28T13:53:15;29.38;;;20.60;;
54201;SDS011;40108;53.152;5.844;2024-02-28T13:55:44;29.50;;;22.52;;
54201;SDS011;40108;53.152;5.844;2024-02-28T13:58:10;33.33;;;22.33;;
54201;SDS011;40108;53.152;5.844;2024-02-28T14:00:37;34.03;;;25.60;;
54201;SDS011;40108;53.152;5.844;2024-02-28T14:03:04;31.25;;;23.98;;
54201;SDS011;40108;53.152;5.844;2024-02-28T14:05:31;31.05;;;22.40;;
54201;SDS011;40108;53.152;5.844;2024-02-28T14:07:57;27.70;;;23.17;;
54201;SDS011;40108;53.152;5.844;2024-02-28T14:10:23;27.13;;;20.92;;
54201;SDS011;40108;53.152;5.844;2024-02-28T14:12:49;29.00;;;22.45;;
54201;SDS011;40108;53.152;5.844;2024-02-28T14:15:17;27.55;;;21.10;;
54201;SDS011;40108;53.152;5.844;2024-02-28T14:17:44;30.40;;;20.63;;